Time;durP1;ratioP1;P1;durP2;ratioP2;P2;SDS_P1;SDS_P2;PMS_P1;PMS_P2;Temp;Humidity;BMP_temperature;BMP_pressure;BME280_temperature;BME280_humidity;BME280_pressure;Samples;Min_cycle;Max_cycle;Signal;HPM_P1;HPM_P2
2021/07/26 00:00:16;;;;;;;13.37;10.00;;;;;;;19.81;100.00;100003.19;5169183;28;20022;-78
2021/07/26 00:02:47;;;;;;;12.32;9.80;;;;;;;19.79;100.00;100013.09;5167368;28;20424;-80
2021/07/26 00:05:17;;;;;;;14.63;10.80;;;;;;;19.66;100.00;100007.09;5168457;28;20022;-79
2021/07/26 00:07:47;;;;;;;14.13;10.45;;;;;;;19.64;100.00;99999.25;5170322;28;20146;-79
2021/07/26 00:10:18;;;;;;;12.85;9.60;;;;;;;19.87;100.00;99986.78;5179716;28;20026;-79
2021/07/26 00:12:48;;;;;;;13.50;10.05;;;;;;;20.04;100.00;99988.91;5169150;28;20034;-80
2021/07/26 00:15:18;;;;;;;12.32;10.23;;;;;;;20.00;100.00;99988.28;5170534;28;20109;-79
2021/07/26 00:17:49;;;;;;;15.40;11.10;;;;;;;19.69;100.00;99989.16;5170813;28;20030;-79
2021/07/26 00:20:19;;;;;;;13.53;10.77;;;;;;;19.72;100.00;99988.88;5168823;28;20026;-80
2021/07/26 00:22:49;;;;;;;13.10;10.17;;;;;;;19.78;100.00;99995.50;5168341;28;20305;-78
2021/07/26 00:25:21;;;;;;;13.02;9.80;;;;;;;19.91;100.00;99989.03;5172243;28;20272;-79
2021/07/26 00:27:52;;;;;;;13.48;10.75;;;;;;;19.85;100.00;100002.84;5173350;28;20372;-80
2021/07/26 00:30:22;;;;;;;13.20;10.90;;;;;;;19.58;100.00;100018.34;5168452;28;20081;-80
2021/07/26 00:32:52;;;;;;;15.13;10.43;;;;;;;19.69;100.00;100020.97;5168627;28;20273;-80
2021/07/26 00:35:22;;;;;;;13.50;9.70;;;;;;;19.86;100.00;100033.69;5166716;28;20778;-80
2021/07/26 00:37:53;;;;;;;13.73;10.00;;;;;;;19.92;100.00;100022.56;5168751;28;20288;-79
2021/07/26 00:40:24;;;;;;;15.48;10.18;;;;;;;19.88;100.00;100041.50;5173472;28;20728;-80
2021/07/26 00:42:55;;;;;;;13.27;9.18;;;;;;;19.75;100.00;100056.75;5166883;28;20046;-79
2021/07/26 00:45:25;;;;;;;15.02;8.55;;;;;;;20.04;100.00;100056.09;5159810;28;20421;-80
2021/07/26 00:47:55;;;;;;;12.07;8.68;;;;;;;20.24;100.00;100055.28;5166123;28;20316;-80
2021/07/26 00:50:25;;;;;;;13.27;9.07;;;;;;;20.40;100.00;100054.81;5167394;28;20026;-80
2021/07/26 00:52:56;;;;;;;10.30;8.07;;;;;;;20.55;100.00;100049.06;5173241;28;20281;-80
2021/07/26 00:55:26;;;;;;;10.65;7.68;;;;;;;20.63;100.00;100035.16;5173865;28;20080;-79
2021/07/26 00:57:56;;;;;;;10.55;7.20;;;;;;;20.68;100.00;100044.38;5180948;28;20449;-78
2021/07/26 01:00:27;;;;;;;10.77;7.45;;;;;;;20.73;100.00;100043.03;5168354;28;20475;-78
2021/07/26 01:02:57;;;;;;;12.77;7.60;;;;;;;20.86;100.00;100038.38;5168091;28;20431;-80
2021/07/26 01:05:27;;;;;;;10.80;7.40;;;;;;;20.97;100.00;100040.09;5168618;28;20026;-80
2021/07/26 01:07:57;;;;;;;12.48;7.93;;;;;;;20.91;100.00;100040.66;5171167;28;20416;-80
2021/07/26 01:10:28;;;;;;;16.23;8.15;;;;;;;20.96;100.00;100046.41;5173225;28;20029;-80
2021/07/26 01:12:58;;;;;;;14.02;8.82;;;;;;;21.01;100.00;100042.38;5168707;28;20026;-80
2021/07/26 01:15:28;;;;;;;17.15;9.10;;;;;;;21.05;100.00;100037.66;5168349;28;20050;-80
2021/07/26 01:18:24;;;;;;;14.27;8.50;;;;;;;21.08;100.00;100032.88;5167539;28;20032;-79
2021/07/26 01:20:55;;;;;;;11.75;8.48;;;;;;;21.07;100.00;100022.41;5163965;28;20030;-80
2021/07/26 01:23:28;;;;;;;12.52;8.90;;;;;;;21.01;100.00;100022.91;5168928;28;20034;-79
2021/07/26 01:25:59;;;;;;;14.45;8.40;;;;;;;20.81;100.00;100018.47;5176080;28;20030;-79
2021/07/26 01:28:33;;;;;;;11.25;7.55;;;;;;;20.84;100.00;100018.22;5168585;28;20030;-78
2021/07/26 01:31:04;;;;;;;9.93;7.10;;;;;;;20.82;100.00;100014.81;5166866;28;20030;-79
2021/07/26 01:33:35;;;;;;;11.18;7.50;;;;;;;20.96;100.00;100011.84;5165562;28;20049;-79
2021/07/26 01:36:06;;;;;;;12.20;8.18;;;;;;;20.80;100.00;100003.50;5164640;28;20026;-80
2021/07/26 01:38:36;;;;;;;10.52;7.65;;;;;;;20.89;100.00;99994.78;5169528;28;20023;-78
2021/07/26 01:41:07;;;;;;;12.38;8.60;;;;;;;20.72;100.00;99992.69;5173012;28;20026;-79
2021/07/26 01:47:03;;;;;;;12.38;7.90;;;;;;;20.65;100.00;99996.84;5163595;28;20393;-80
2021/07/26 01:49:40;;;;;;;11.20;7.95;;;;;;;20.60;100.00;99996.41;5163184;28;20057;-79
2021/07/26 01:52:10;;;;;;;9.95;7.47;;;;;;;20.65;100.00;99996.84;5166113;28;20034;-78
2021/07/26 01:54:41;;;;;;;10.40;7.72;;;;;;;20.61;100.00;100010.53;5169956;28;20022;-79
2021/07/26 01:57:12;;;;;;;10.35;8.13;;;;;;;20.23;100.00;100010.25;5171423;28;20034;-79
2021/07/26 01:59:42;;;;;;;10.75;8.07;;;;;;;20.01;100.00;100005.91;5164748;28;20084;-79
2021/07/26 02:02:13;;;;;;;11.20;8.25;;;;;;;20.08;100.00;100001.78;5160800;28;20030;-79
2021/07/26 02:04:43;;;;;;;11.05;7.63;;;;;;;20.10;100.00;100002.50;5167658;28;20026;-80
2021/07/26 02:07:13;;;;;;;12.18;8.40;;;;;;;19.99;100.00;100013.13;5167358;28;20025;-80
2021/07/26 02:09:43;;;;;;;15.02;7.88;;;;;;;19.77;100.00;100018.50;5174742;28;20029;-80
2021/07/26 02:12:14;;;;;;;13.50;8.40;;;;;;;19.83;100.00;100026.00;5171380;28;20041;-80
2021/07/26 02:14:44;;;;;;;11.10;7.75;;;;;;;19.82;100.00;100021.63;5167146;28;20340;-81
2021/07/26 02:17:16;;;;;;;12.45;8.48;;;;;;;19.87;100.00;100023.91;5167330;28;20026;-77
2021/07/26 02:19:46;;;;;;;11.75;7.90;;;;;;;19.64;100.00;100022.31;5165621;28;20029;-80
2021/07/26 02:22:16;;;;;;;10.15;7.93;;;;;;;19.70;100.00;100027.09;5166093;28;20030;-81
2021/07/26 02:24:46;;;;;;;12.95;8.73;;;;;;;19.68;100.00;100023.72;5170185;28;20050;-80
2021/07/26 02:27:17;;;;;;;10.90;8.38;;;;;;;19.40;100.00;100025.13;5174378;28;20053;-80
2021/07/26 02:29:47;;;;;;;10.70;8.15;;;;;;;19.39;100.00;100018.13;5165725;28;20030;-78
2021/07/26 02:32:17;;;;;;;10.98;8.32;;;;;;;19.25;100.00;100034.28;5166135;28;20504;-78
2021/07/26 02:34:48;;;;;;;14.17;8.67;;;;;;;19.20;100.00;100033.81;5165558;28;20094;-80
2021/07/26 02:37:18;;;;;;;10.50;8.18;;;;;;;19.19;100.00;100034.78;5167220;28;20281;-80
2021/07/26 02:39:48;;;;;;;11.73;8.13;;;;;;;19.22;100.00;100031.91;5175887;28;20356;-80
2021/07/26 02:42:18;;;;;;;14.57;10.17;;;;;;;19.25;100.00;100036.94;5168054;28;20469;-80
2021/07/26 02:44:49;;;;;;;13.25;9.25;;;;;;;19.28;100.00;100036.69;5166893;28;20281;-81
2021/07/26 02:47:19;;;;;;;14.52;9.65;;;;;;;19.28;100.00;100046.47;5167399;28;20089;-80
2021/07/26 02:49:49;;;;;;;17.23;10.20;;;;;;;19.22;100.00;100047.78;5165711;28;20041;-76
2021/07/26 02:52:19;;;;;;;14.60;10.20;;;;;;;19.22;100.00;100046.94;5167456;28;20838;-80
2021/07/26 02:54:50;;;;;;;12.27;8.60;;;;;;;19.13;100.00;100061.72;5170772;28;20030;-77
2021/07/26 02:57:20;;;;;;;12.97;9.30;;;;;;;19.11;100.00;100060.16;5174635;28;20485;-77
2021/07/26 02:59:50;;;;;;;14.57;9.90;;;;;;;19.21;100.00;100059.34;5168008;28;20347;-79
2021/07/26 03:02:21;;;;;;;14.10;9.48;;;;;;;19.28;100.00;100063.19;5170299;28;20273;-80
2021/07/26 03:04:51;;;;;;;13.02;9.60;;;;;;;19.24;100.00;100072.34;5169503;28;20025;-80
2021/07/26 03:07:21;;;;;;;13.10;9.63;;;;;;;19.10;100.00;100069.91;5169893;28;20057;-80
2021/07/26 03:09:51;;;;;;;12.40;9.73;;;;;;;19.07;100.00;100074.63;5179357;28;20026;-80
2021/07/26 03:12:22;;;;;;;13.05;10.77;;;;;;;18.93;100.00;100066.91;5172693;28;20281;-81
2021/07/26 03:14:52;;;;;;;15.87;9.63;;;;;;;18.98;100.00;100075.34;5170922;28;20022;-81
2021/07/26 03:17:25;;;;;;;12.00;9.25;;;;;;;18.77;100.00;100072.53;5170851;28;20288;-78
2021/07/26 03:19:55;;;;;;;14.35;10.80;;;;;;;18.74;100.00;100078.06;5171789;28;20444;-80
2021/07/26 03:22:47;;;;;;;15.70;10.10;;;;;;;18.70;100.00;100080.22;5171605;28;20034;-79
2021/07/26 03:25:19;;;;;;;18.70;11.02;;;;;;;18.59;100.00;100077.53;5179198;28;20025;-81
2021/07/26 03:27:49;;;;;;;18.30;10.13;;;;;;;18.51;100.00;100085.25;5179686;28;20400;-77
2021/07/26 03:30:21;;;;;;;12.05;9.57;;;;;;;18.70;100.00;100088.16;5174973;28;20030;-81
2021/07/26 03:32:52;;;;;;;13.90;9.60;;;;;;;18.73;100.00;100092.25;5178693;28;20029;-80
2021/07/26 03:35:23;;;;;;;17.92;10.48;;;;;;;18.64;100.00;100091.25;5178351;28;20032;-81
2021/07/26 03:37:53;;;;;;;13.80;9.85;;;;;;;18.77;100.00;100093.72;5176990;28;20022;-77
2021/07/26 03:40:24;;;;;;;14.23;9.55;;;;;;;18.70;100.00;100085.53;5182202;28;20456;-80
2021/07/26 03:42:56;;;;;;;13.63;9.98;;;;;;;18.66;100.00;100087.56;5177819;28;20081;-80
2021/07/26 03:45:26;;;;;;;13.85;10.00;;;;;;;18.67;100.00;100097.19;5177321;28;20052;-80
2021/07/26 03:47:59;;;;;;;13.00;9.55;;;;;;;18.80;100.00;100092.66;5175475;28;20281;-80
2021/07/26 03:50:29;;;;;;;15.25;10.45;;;;;;;18.74;100.00;100096.59;5174916;28;20041;-79
2021/07/26 03:53:00;;;;;;;13.68;10.48;;;;;;;18.72;100.00;100095.03;5173745;28;20022;-77
2021/07/26 03:55:33;;;;;;;16.25;10.63;;;;;;;18.85;100.00;100091.34;5180928;28;20040;-79
2021/07/26 03:58:03;;;;;;;13.75;10.77;;;;;;;18.82;100.00;100104.81;5176498;28;20077;-79
2021/07/26 04:00:34;;;;;;;17.67;10.57;;;;;;;18.73;100.00;100104.69;5168063;28;20065;-80
2021/07/26 04:05:47;;;;;;;12.75;8.90;;;;;;;18.73;100.00;100118.75;5169077;28;20034;-82
2021/07/26 04:08:25;;;;;;;13.32;8.80;;;;;;;18.73;100.00;100106.47;5164254;28;20045;-81
2021/07/26 04:11:15;;;;;;;13.02;9.95;;;;;;;18.62;100.00;100114.38;5176521;28;20499;-80
2021/07/26 04:13:50;;;;;;;15.00;11.23;;;;;;;18.48;100.00;100117.25;5164840;28;20030;-79
2021/07/26 04:16:21;;;;;;;17.13;11.38;;;;;;;18.47;100.00;100121.66;5167992;28;20026;-77
2021/07/26 04:18:52;;;;;;;12.38;9.40;;;;;;;18.77;100.00;100124.66;5167761;28;20030;-80
2021/07/26 04:21:29;;;;;;;9.85;8.13;;;;;;;18.77;100.00;100117.53;5168315;28;20026;-78
2021/07/26 04:24:02;;;;;;;10.13;7.40;;;;;;;18.97;100.00;100121.31;5169997;28;20291;-80
2021/07/26 04:26:33;;;;;;;14.02;9.50;;;;;;;19.04;100.00;100128.69;5172088;28;20396;-79
2021/07/26 04:29:03;;;;;;;10.90;8.70;;;;;;;19.24;100.00;100129.84;5171618;28;20030;-79
2021/07/26 04:31:33;;;;;;;10.48;8.40;;;;;;;19.36;100.00;100132.34;5167401;28;20030;-80
2021/07/26 04:34:04;;;;;;;12.37;8.57;;;;;;;19.52;100.00;100132.84;5164873;28;20069;-80
2021/07/26 04:36:34;;;;;;;14.98;9.45;;;;;;;19.62;100.00;100133.78;5173240;28;20664;-81
2021/07/26 04:39:04;;;;;;;13.90;9.27;;;;;;;19.57;100.00;100133.31;5182259;28;20436;-82
2021/07/26 04:41:35;;;;;;;21.08;10.43;;;;;;;19.54;100.00;100140.66;5168663;28;20281;-81
2021/07/26 04:44:05;;;;;;;13.30;9.80;;;;;;;19.63;100.00;100135.47;5173372;28;20072;-78
2021/07/26 04:46:35;;;;;;;15.80;10.88;;;;;;;19.68;100.00;100141.28;5173313;28;20606;-81
2021/07/26 04:49:05;;;;;;;14.37;9.30;;;;;;;19.83;100.00;100137.41;5175511;28;20037;-78
2021/07/26 04:51:36;;;;;;;12.83;9.23;;;;;;;20.03;100.00;100141.97;5176184;28;20316;-80
2021/07/26 04:54:06;;;;;;;17.20;11.13;;;;;;;19.72;100.00;100145.34;5169971;28;20289;-81
2021/07/26 04:56:36;;;;;;;18.00;11.50;;;;;;;19.75;100.00;100145.09;5183880;28;20061;-79
2021/07/26 04:59:07;;;;;;;14.55;10.30;;;;;;;20.06;100.00;100141.72;5174145;28;20033;-81
2021/07/26 05:01:38;;;;;;;12.95;9.30;;;;;;;20.32;100.00;100137.75;5172052;28;20201;-77
2021/07/26 05:04:08;;;;;;;16.30;9.90;;;;;;;20.55;100.00;100134.06;5174782;28;20126;-81
2021/07/26 05:06:38;;;;;;;16.90;10.23;;;;;;;20.53;100.00;100141.31;5177566;28;20096;-79
2021/07/26 05:09:08;;;;;;;13.05;9.05;;;;;;;20.77;100.00;100144.56;5182405;28;20288;-78
2021/07/26 05:11:40;;;;;;;12.93;8.65;;;;;;;20.53;100.00;100143.97;5175508;28;20022;-81
2021/07/26 05:14:11;;;;;;;12.48;7.55;;;;;;;20.69;100.00;100145.19;5167300;28;20075;-79
2021/07/26 05:16:41;;;;;;;12.57;7.80;;;;;;;20.64;100.00;100143.06;5168163;28;20094;-81
2021/07/26 05:19:12;;;;;;;9.90;7.30;;;;;;;20.59;100.00;100151.41;5168004;28;20033;-81
2021/07/26 05:21:42;;;;;;;13.13;8.10;;;;;;;21.19;100.00;100136.47;5166990;28;20288;-80
2021/07/26 05:24:12;;;;;;;10.93;6.75;;;;;;;21.34;100.00;100140.47;5172902;28;20272;-79
2021/07/26 05:26:43;;;;;;;10.15;6.25;;;;;;;21.86;100.00;100129.63;5175997;28;20497;-81
2021/07/26 05:29:13;;;;;;;11.35;6.20;;;;;;;22.30;100.00;100125.63;5170070;28;20038;-77
2021/07/26 05:31:43;;;;;;;11.97;6.40;;;;;;;22.09;99.48;100123.09;5166829;28;20022;-79
2021/07/26 05:34:13;;;;;;;9.07;5.63;;;;;;;22.78;97.81;100130.00;5174385;28;20293;-78
2021/07/26 05:36:44;;;;;;;8.53;5.50;;;;;;;22.39;98.54;100122.19;5172307;28;20503;-78
2021/07/26 05:39:14;;;;;;;8.43;5.80;;;;;;;22.02;100.00;100131.75;5178046;28;20275;-80
2021/07/26 05:41:45;;;;;;;11.40;5.78;;;;;;;22.25;99.81;100127.88;5170241;28;20323;-81
2021/07/26 05:44:15;;;;;;;10.25;6.43;;;;;;;22.17;100.00;100123.25;5163812;28;20113;-79
2021/07/26 05:46:45;;;;;;;14.60;7.20;;;;;;;21.60;100.00;100124.91;5164587;28;20030;-79
2021/07/26 05:49:16;;;;;;;13.38;7.03;;;;;;;21.91;100.00;100127.38;5164323;28;20313;-80
2021/07/26 05:51:47;;;;;;;10.95;6.30;;;;;;;23.47;94.79;100118.91;5164358;28;20030;-79
2021/07/26 05:54:17;;;;;;;9.55;6.15;;;;;;;25.07;89.54;100123.25;5164345;28;20484;-79
2021/07/26 05:56:49;;;;;;;8.30;5.28;;;;;;;25.85;85.18;100123.88;5175236;28;20026;-78
2021/07/26 05:59:19;;;;;;;9.60;5.35;;;;;;;26.25;82.84;100123.16;5165749;28;20412;-78
2021/07/26 06:01:50;;;;;;;10.10;5.72;;;;;;;26.89;81.32;100119.53;5165564;28;20113;-81
2021/07/26 06:04:21;;;;;;;9.47;5.50;;;;;;;28.19;78.50;100114.44;5166182;28;20026;-80
2021/07/26 06:06:53;;;;;;;11.65;5.43;;;;;;;29.01;75.82;100119.91;5164956;28;20745;-80
2021/07/26 06:09:24;;;;;;;11.48;5.53;;;;;;;27.53;78.98;100127.50;5172608;28;20029;-79
2021/07/26 06:11:55;;;;;;;9.40;4.78;;;;;;;27.91;76.39;100112.41;5169544;28;20034;-81
2021/07/26 06:14:25;;;;;;;10.25;4.22;;;;;;;27.85;77.22;100116.66;5166329;28;20033;-81
2021/07/26 06:16:59;;;;;;;7.07;5.00;;;;;;;26.91;80.10;100122.88;5164767;28;20058;-80
2021/07/26 06:19:29;;;;;;;9.80;4.65;;;;;;;26.10;80.91;100120.28;5172759;28;20061;-81
2021/07/26 06:21:59;;;;;;;8.53;4.67;;;;;;;24.71;87.33;100126.97;5165349;28;20027;-81
2021/07/26 06:24:31;;;;;;;9.23;5.22;;;;;;;24.49;87.55;100132.78;5175987;28;20276;-81
2021/07/26 06:27:01;;;;;;;9.18;4.88;;;;;;;23.96;91.57;100139.06;5173001;28;20076;-81
2021/07/26 06:29:32;;;;;;;9.98;4.70;;;;;;;23.98;92.39;100132.56;5164870;28;20030;-80
2021/07/26 06:32:04;;;;;;;12.27;4.77;;;;;;;23.71;93.33;100145.88;5164152;28;20521;-79
2021/07/26 06:34:34;;;;;;;13.20;5.07;;;;;;;23.48;94.82;100141.94;5169320;28;20300;-79
2021/07/26 06:37:04;;;;;;;9.17;4.60;;;;;;;24.39;88.33;100140.00;5168375;28;20030;-78
2021/07/26 06:39:35;;;;;;;7.13;4.65;;;;;;;24.78;86.08;100139.56;5176998;28;20368;-80
2021/07/26 06:42:05;;;;;;;9.65;5.00;;;;;;;24.26;89.69;100144.91;5172252;28;20022;-80
2021/07/26 06:44:37;;;;;;;11.60;5.00;;;;;;;24.85;89.72;100145.16;5169852;28;20030;-81
2021/07/26 06:47:07;;;;;;;7.47;4.25;;;;;;;26.09;82.04;100145.41;5168425;28;20289;-81
2021/07/26 06:49:38;;;;;;;8.40;4.10;;;;;;;26.82;79.48;100149.88;5169079;28;20030;-78
2021/07/26 06:52:08;;;;;;;6.80;3.80;;;;;;;27.14;76.68;100148.03;5167909;28;20057;-81
2021/07/26 06:54:39;;;;;;;8.40;3.83;;;;;;;27.95;75.80;100141.44;5172863;28;20359;-80
2021/07/26 06:57:10;;;;;;;8.27;3.80;;;;;;;28.31;72.57;100137.25;5175764;28;20023;-80
2021/07/26 06:59:40;;;;;;;8.68;3.95;;;;;;;28.97;69.26;100140.97;5168352;28;20041;-80
2021/07/26 07:02:12;;;;;;;6.13;3.78;;;;;;;28.75;70.11;100144.47;5167962;28;20034;-81
2021/07/26 07:04:43;;;;;;;7.20;3.80;;;;;;;28.44;70.69;100142.88;5167123;28;20467;-82
2021/07/26 07:07:13;;;;;;;6.40;3.47;;;;;;;28.30;72.39;100142.78;5163016;28;20030;-82
2021/07/26 07:09:43;;;;;;;7.53;3.83;;;;;;;29.01;69.67;100149.50;5174087;28;20029;-79
2021/07/26 07:12:17;;;;;;;6.70;3.85;;;;;;;29.21;70.54;100142.59;5171996;28;20510;-81
2021/07/26 07:14:47;;;;;;;5.95;3.20;;;;;;;29.08;68.79;100145.91;5169054;28;20038;-80
2021/07/26 07:17:17;;;;;;;5.17;3.10;;;;;;;29.05;68.19;100142.75;5168543;28;20065;-81
2021/07/26 07:19:49;;;;;;;5.97;3.20;;;;;;;29.61;68.03;100145.72;5167878;28;20359;-81
2021/07/26 07:22:20;;;;;;;5.47;3.28;;;;;;;30.96;64.14;100145.66;5168778;28;20065;-80
2021/07/26 07:24:50;;;;;;;5.95;3.50;;;;;;;30.31;64.01;100151.41;5173720;28;20481;-81
2021/07/26 07:27:20;;;;;;;5.87;3.47;;;;;;;29.87;65.59;100145.22;5175239;28;20034;-81
2021/07/26 07:29:51;;;;;;;6.53;3.07;;;;;;;29.80;65.36;100144.31;5166561;28;20336;-82
2021/07/26 07:32:22;;;;;;;5.97;2.80;;;;;;;30.89;62.89;100143.94;5166388;28;20041;-80
2021/07/26 07:34:52;;;;;;;5.38;3.20;;;;;;;30.95;64.02;100144.00;5167008;28;20476;-79
2021/07/26 07:37:23;;;;;;;4.47;2.83;;;;;;;29.34;66.88;100150.88;5167198;28;20030;-79
2021/07/26 07:39:53;;;;;;;4.25;2.75;;;;;;;30.97;63.89;100144.63;5176646;28;20026;-80
2021/07/26 07:42:23;;;;;;;6.55;2.75;;;;;;;32.85;60.21;100152.06;5171036;28;20030;-81
2021/07/26 07:44:54;;;;;;;6.33;2.83;;;;;;;32.58;60.10;100151.16;5166169;28;20034;-81
2021/07/26 07:47:24;;;;;;;6.35;2.80;;;;;;;32.74;58.31;100158.13;5168809;28;20037;-79
2021/07/26 07:49:54;;;;;;;6.25;2.95;;;;;;;31.62;61.28;100153.25;5166725;28;20022;-80
2021/07/26 07:52:25;;;;;;;5.73;2.60;;;;;;;33.84;54.45;100142.63;5167476;28;20029;-81
2021/07/26 07:54:55;;;;;;;4.73;3.00;;;;;;;31.67;59.47;100161.63;5171988;28;20038;-80
2021/07/26 07:57:28;;;;;;;6.43;2.67;;;;;;;31.67;60.45;100153.50;5173590;28;20022;-78
2021/07/26 07:59:59;;;;;;;4.82;2.60;;;;;;;33.54;55.82;100146.88;5167296;28;20508;-77
2021/07/26 08:02:29;;;;;;;7.13;2.60;;;;;;;35.14;53.24;100145.41;5166520;28;20531;-78
2021/07/26 08:04:59;;;;;;;5.23;2.57;;;;;;;33.47;55.52;100148.75;5164415;28;20072;-77
2021/07/26 08:07:30;;;;;;;3.78;2.42;;;;;;;33.83;55.45;100156.41;5164569;28;20273;-77
2021/07/26 08:10:00;;;;;;;4.88;2.70;;;;;;;33.28;55.71;100156.91;5163596;28;20042;-77
2021/07/26 08:12:33;;;;;;;4.43;2.50;;;;;;;34.44;53.97;100158.47;5166882;28;20034;-77
2021/07/26 08:15:03;;;;;;;5.20;2.30;;;;;;;34.42;53.66;100155.13;5165590;28;20029;-77
2021/07/26 08:17:38;;;;;;;6.30;2.47;;;;;;;34.95;53.00;100155.63;5167016;28;20469;-77
2021/07/26 08:20:14;;;;;;;4.37;2.37;;;;;;;35.25;52.04;100150.16;5165152;28;20105;-77
2021/07/26 08:22:45;;;;;;;4.03;2.25;;;;;;;34.48;53.80;100146.09;5156377;28;20632;-77
2021/07/26 08:25:16;;;;;;;5.40;2.47;;;;;;;34.53;53.59;100146.28;5178137;28;20026;-78
2021/07/26 08:27:55;;;;;;;4.03;2.28;;;;;;;34.72;53.20;100152.66;5171292;28;20033;-78
2021/07/26 08:30:27;;;;;;;3.90;2.13;;;;;;;33.60;54.75;100154.16;5166327;28;20029;-78
2021/07/26 08:32:58;;;;;;;4.05;2.30;;;;;;;35.64;52.42;100146.25;5164847;28;20041;-78
2021/07/26 08:35:29;;;;;;;3.85;2.10;;;;;;;34.69;54.48;100150.41;5164675;28;20493;-78
2021/07/26 08:37:59;;;;;;;3.50;2.20;;;;;;;36.50;49.33;100143.06;5166814;28;20029;-78
2021/07/26 08:40:31;;;;;;;4.05;2.30;;;;;;;37.74;48.23;100139.13;5175045;28;20405;-78
2021/07/26 08:43:05;;;;;;;3.83;2.33;;;;;;;38.73;46.00;100145.81;5165255;28;20049;-78
2021/07/26 08:45:36;;;;;;;4.32;2.13;;;;;;;38.24;45.99;100143.75;5165969;28;20026;-78
2021/07/26 08:48:08;;;;;;;4.40;2.22;;;;;;;37.69;46.83;100152.66;5165026;28;20097;-78
2021/07/26 08:50:38;;;;;;;4.18;2.30;;;;;;;38.17;45.54;100140.34;5165342;28;20103;-78
2021/07/26 08:53:09;;;;;;;5.30;2.50;;;;;;;36.74;47.98;100153.00;5164550;28;20113;-78
2021/07/26 08:55:41;;;;;;;5.55;2.40;;;;;;;36.08;49.13;100151.38;5168658;28;20528;-77
2021/07/26 08:58:11;;;;;;;5.32;2.50;;;;;;;36.73;48.67;100150.50;5166080;28;20092;-77
2021/07/26 09:00:42;;;;;;;4.18;2.60;;;;;;;35.18;51.73;100152.13;5162947;28;20022;-78
2021/07/26 09:03:13;;;;;;;4.88;2.63;;;;;;;37.17;48.91;100143.50;5164713;28;20026;-78
2021/07/26 09:05:44;;;;;;;3.80;2.37;;;;;;;36.69;48.34;100146.59;5159323;28;20402;-78
2021/07/26 09:08:14;;;;;;;4.63;2.40;;;;;;;35.39;51.09;100151.72;5166084;28;20491;-78
2021/07/26 09:10:45;;;;;;;5.37;2.20;;;;;;;36.89;47.75;100147.97;5170305;28;20121;-78
2021/07/26 09:13:31;;;;;;;4.43;2.45;;;;;;;37.58;46.06;100148.06;5157872;28;20355;-78
2021/07/26 09:16:22;;;;;;;5.95;3.00;;;;;;;34.38;53.64;100158.50;5164928;28;20029;-78
2021/07/26 09:19:10;;;;;;;4.95;3.30;;;;;;;35.13;51.12;100160.06;5163908;28;20472;-78
2021/07/26 09:21:52;;;;;;;6.40;3.40;;;;;;;31.82;55.02;100165.03;5165197;28;20370;-78
2021/07/26 09:24:24;;;;;;;6.53;3.20;;;;;;;34.69;49.90;100156.66;5165112;28;20029;-78
2021/07/26 09:27:07;;;;;;;6.13;3.22;;;;;;;34.42;51.54;100160.56;5169471;28;20520;-78
2021/07/26 09:29:37;;;;;;;4.10;2.80;;;;;;;35.44;48.72;100159.19;5170904;28;20049;-80
2021/07/26 09:32:07;;;;;;;5.20;2.80;;;;;;;33.61;52.56;100163.09;5164866;28;20531;-80
2021/07/26 09:34:38;;;;;;;6.63;3.10;;;;;;;34.08;51.26;100160.06;5165733;28;20607;-81
2021/07/26 09:37:19;;;;;;;4.00;2.47;;;;;;;35.74;50.91;100155.56;5164302;28;20026;-78
2021/07/26 09:39:50;;;;;;;5.18;2.67;;;;;;;36.43;49.97;100161.41;5167983;28;20034;-78
2021/07/26 09:42:26;;;;;;;3.90;2.50;;;;;;;36.18;49.00;100160.72;5165141;28;20030;-78
2021/07/26 09:45:20;;;;;;;4.82;2.42;;;;;;;36.11;48.79;100162.66;5162025;28;20029;-77
2021/07/26 09:48:10;;;;;;;7.75;2.45;;;;;;;34.06;51.82;100159.44;5159982;28;20050;-78
2021/07/26 09:50:48;;;;;;;3.83;2.28;;;;;;;34.75;52.59;100153.06;5160820;28;20022;-78
2021/07/26 09:53:21;;;;;;;5.88;2.28;;;;;;;35.93;51.17;100162.66;5159834;28;20100;-78
2021/07/26 09:55:53;;;;;;;4.50;2.38;;;;;;;33.43;52.40;100158.34;5170825;28;20032;-78
2021/07/26 09:58:38;;;;;;;4.07;2.38;;;;;;;35.38;49.99;100158.22;5165531;28;20026;-78
2021/07/26 10:01:10;;;;;;;5.30;2.70;;;;;;;33.26;54.27;100149.00;5162170;28;20098;-78
2021/07/26 10:03:43;;;;;;;4.22;2.63;;;;;;;32.70;57.27;100151.47;5162493;28;20068;-78
2021/07/26 10:06:14;;;;;;;3.08;2.25;;;;;;;32.75;53.31;100146.25;5152800;28;20034;-78
2021/07/26 10:08:46;;;;;;;4.00;2.80;;;;;;;32.31;55.19;100149.47;5166906;28;20513;-78
2021/07/26 10:11:17;;;;;;;5.70;2.75;;;;;;;31.46;56.90;100155.41;5168859;28;20030;-78
2021/07/26 10:13:47;;;;;;;4.93;2.70;;;;;;;32.72;53.35;100152.91;5160297;28;20081;-77
2021/07/26 10:16:19;;;;;;;4.38;2.90;;;;;;;32.18;54.39;100149.41;5160722;28;20468;-77
2021/07/26 10:18:50;;;;;;;4.63;2.63;;;;;;;31.89;56.00;100149.66;5160422;28;20512;-77
2021/07/26 10:21:25;;;;;;;6.32;3.00;;;;;;;32.25;54.98;100144.84;5160683;28;20022;-77
2021/07/26 10:23:59;;;;;;;;;;;;;;;31.58;57.94;100140.31;5161362;28;20045;-77
2021/07/26 10:26:39;;;;;;;4.25;2.65;;;;;;;31.62;58.56;100142.44;5170552;28;20406;-77
2021/07/26 10:29:10;;;;;;;6.88;2.60;;;;;;;31.50;56.66;100144.00;5161291;28;20121;-77
2021/07/26 10:31:41;;;;;;;4.15;2.40;;;;;;;30.77;58.35;100136.56;5162079;28;20155;-79
2021/07/26 10:34:19;;;;;;;4.20;2.65;;;;;;;30.42;58.73;100140.13;5164361;28;20034;-79
2021/07/26 10:36:58;;;;;;;4.05;2.67;;;;;;;30.29;60.28;100139.97;5161347;28;20101;-79
2021/07/26 10:39:29;;;;;;;5.05;2.65;;;;;;;30.25;59.84;100144.91;5170074;28;20061;-79
2021/07/26 10:42:01;;;;;;;5.30;2.85;;;;;;;30.35;61.80;100142.75;5167970;28;20033;-80
2021/07/26 10:44:34;;;;;;;3.80;2.60;;;;;;;30.13;61.05;100140.22;5164255;28;20552;-79
2021/07/26 10:47:10;;;;;;;4.90;2.70;;;;;;;29.38;58.64;100134.16;5164713;28;20330;-79
2021/07/26 10:49:43;;;;;;;5.22;2.78;;;;;;;29.89;63.61;100133.25;5163965;28;20033;-79
2021/07/26 10:52:23;;;;;;;4.75;2.92;;;;;;;29.97;60.40;100135.84;5159605;28;20061;-79
2021/07/26 10:54:55;;;;;;;4.30;2.80;;;;;;;30.05;60.40;100127.66;5169048;28;20052;-79
2021/07/26 10:57:49;;;;;;;4.03;2.80;;;;;;;30.00;63.66;100130.06;5169557;28;20054;-79
2021/07/26 11:00:21;;;;;;;4.72;2.70;;;;;;;30.24;61.55;100131.63;5160753;28;20026;-80
2021/07/26 11:02:52;;;;;;;6.13;3.05;;;;;;;29.57;61.05;100117.47;5159711;28;20396;-79
2021/07/26 11:05:28;;;;;;;5.10;3.25;;;;;;;29.64;61.56;100122.94;5164865;28;20019;-79
2021/07/26 11:08:18;;;;;;;6.30;3.05;;;;;;;29.79;61.12;100118.38;5165170;28;20040;-79
2021/07/26 11:10:59;;;;;;;5.80;3.20;;;;;;;29.67;61.29;100127.97;5168991;28;20117;-79
2021/07/26 11:13:45;;;;;;;7.32;3.13;;;;;;;29.09;61.48;100120.66;5169113;28;20041;-79
2021/07/26 11:16:15;;;;;;;6.18;2.90;;;;;;;29.94;60.22;100119.19;5158774;28;20065;-79
2021/07/26 11:18:45;;;;;;;6.60;3.00;;;;;;;29.47;59.67;100124.16;5163845;28;20049;-79
2021/07/26 11:21:21;;;;;;;6.87;3.10;;;;;;;29.29;58.50;100118.28;5165946;28;20281;-79
2021/07/26 11:23:53;;;;;;;5.80;2.58;;;;;;;29.74;61.77;100118.13;5167425;28;20365;-79
2021/07/26 11:26:30;;;;;;;4.60;2.50;;;;;;;29.70;60.59;100114.97;5177146;28;20033;-79
2021/07/26 11:29:04;;;;;;;3.30;2.40;;;;;;;29.78;60.65;100114.84;5166409;28;20054;-80
2021/07/26 11:31:38;;;;;;;4.03;2.30;;;;;;;30.06;58.43;100112.34;5165847;28;20121;-79
2021/07/26 11:34:14;;;;;;;3.72;2.30;;;;;;;30.11;58.94;100113.41;5167563;28;20089;-79
2021/07/26 11:37:04;;;;;;;4.40;2.22;;;;;;;30.12;58.06;100114.25;5163017;28;20030;-80
2021/07/26 11:39:47;;;;;;;3.55;2.03;;;;;;;30.20;58.12;100109.59;5173230;28;20121;-80
2021/07/26 11:42:24;;;;;;;4.07;2.20;;;;;;;30.26;59.04;100103.41;5170125;28;20034;-80
2021/07/26 11:44:55;;;;;;;4.80;2.15;;;;;;;29.64;58.79;100096.00;5166867;28;20033;-79